createdAt,value
2022-12-23T00:00:20.959Z,98229.72
2022-12-23T00:01:25.769Z,98224.28
2022-12-23T00:02:30.210Z,98232.22
2022-12-23T00:03:33.789Z,98228.94
2022-12-23T00:04:36.061Z,98232.59
2022-12-23T00:05:39.824Z,98235.63
2022-12-23T00:06:42.451Z,98234.31
2022-12-23T00:07:44.988Z,98223.53
2022-12-23T00:08:47.284Z,98232.84
2022-12-23T00:09:49.542Z,98230.91
2022-12-23T00:10:53.580Z,98228.19
2022-12-23T00:12:14.061Z,98231.22
2022-12-23T00:13:36.235Z,98223.69
2022-12-23T00:14:56.892Z,98221.66
2022-12-23T00:16:02.669Z,98222.16
2022-12-23T00:17:12.929Z,98226.38
2022-12-23T00:18:23.817Z,98220.75
2022-12-23T00:19:26.113Z,98218.22
2022-12-23T00:20:28.755Z,98216.78
2022-12-23T00:21:30.984Z,98212.13
2022-12-23T00:22:51.607Z,98216.16
2022-12-23T00:23:54.034Z,98210.28
2022-12-23T00:24:56.286Z,98209.50
2022-12-23T00:25:58.703Z,98205.13
2022-12-23T00:27:00.860Z,98199.03
2022-12-23T00:28:03.273Z,98193.88
2022-12-23T00:29:05.930Z,98194.09
2022-12-23T00:30:10.096Z,98194.00
2022-12-23T00:31:13.676Z,98202.78
2022-12-23T00:32:16.060Z,98195.50
2022-12-23T00:33:21.400Z,98201.66
2022-12-23T00:34:23.742Z,98197.00
2022-12-23T00:35:26.012Z,98196.78
2022-12-23T00:36:30.590Z,98184.03
2022-12-23T00:37:32.992Z,98185.72
2022-12-23T00:38:53.643Z,98186.41
2022-12-23T00:40:14.167Z,98175.00
2022-12-23T00:41:37.185Z,98176.16
2022-12-23T00:42:54.235Z,98179.41
2022-12-23T00:43:56.870Z,98177.94
2022-12-23T00:45:15.599Z,98175.25
2022-12-23T00:46:18.339Z,98175.75
2022-12-23T00:47:39.145Z,98170.09
2022-12-23T00:48:59.785Z,98170.38
2022-12-23T00:50:01.980Z,98167.44
2022-12-23T00:51:06.044Z,98162.84
2022-12-23T00:52:11.772Z,98165.59
2022-12-23T00:53:13.974Z,98159.13
2022-12-23T00:54:20.277Z,98166.81
2022-12-23T00:55:22.681Z,98160.53
2022-12-23T00:56:24.917Z,98160.34
2022-12-23T00:57:27.970Z,98166.97
2022-12-23T00:58:31.989Z,98164.75
2022-12-23T00:59:34.584Z,98169.09
2022-12-23T01:00:55.795Z,98165.44
2022-12-23T01:02:17.414Z,98170.69
2022-12-23T01:03:39.011Z,98171.34
2022-12-23T01:05:20.348Z,98171.44
2022-12-23T01:06:23.350Z,98173.53
2022-12-23T01:07:26.143Z,98164.03
2022-12-23T01:08:29.071Z,98166.16
2022-12-23T01:09:31.927Z,98174.25
2022-12-23T01:10:36.207Z,98168.94
2022-12-23T01:11:38.550Z,98161.56
2022-12-23T01:12:40.965Z,98166.31
2022-12-23T01:13:43.252Z,98166.53
2022-12-23T01:14:45.828Z,98171.72
2022-12-23T01:15:48.309Z,98166.06
2022-12-23T01:16:50.651Z,98164.56
2022-12-23T01:17:53.198Z,98155.00
2022-12-23T01:18:55.819Z,98164.75
2022-12-23T01:19:58.346Z,98171.22
2022-12-23T01:21:09.920Z,98164.41
2022-12-23T01:22:12.192Z,98172.16
2022-12-23T01:23:14.617Z,98173.66
2022-12-23T01:24:17.019Z,98177.25
2022-12-23T01:25:19.993Z,98181.19
2022-12-23T01:26:22.668Z,98172.19
2022-12-23T01:27:25.245Z,98178.94
2022-12-23T01:28:28.943Z,98184.69
2022-12-23T01:29:31.317Z,98184.19
2022-12-23T01:30:33.562Z,98186.19
2022-12-23T01:31:35.948Z,98175.94
2022-12-23T01:32:38.158Z,98184.69
2022-12-23T01:33:40.742Z,98184.69
2022-12-23T01:34:43.101Z,98196.69
2022-12-23T01:35:45.772Z,98184.47
2022-12-23T01:36:48.071Z,98194.06
2022-12-23T01:37:50.307Z,98192.81
2022-12-23T01:38:52.911Z,98198.53
2022-12-23T01:39:55.113Z,98187.84
2022-12-23T01:40:57.764Z,98195.66
2022-12-23T01:42:19.108Z,98200.50
2022-12-23T01:43:22.011Z,98200.22
2022-12-23T01:44:57.554Z,98204.28
2022-12-23T01:45:59.985Z,98204.34
2022-12-23T01:47:13.237Z,98211.28
2022-12-23T01:48:24.422Z,98218.22
2022-12-23T01:49:26.900Z,98207.53
2022-12-23T01:51:01.911Z,98212.72
2022-12-23T01:52:04.273Z,98218.34
2022-12-23T01:53:20.290Z,98208.88
2022-12-23T01:54:22.546Z,98210.72
2022-12-23T01:55:27.773Z,98224.88
2022-12-23T01:56:39.994Z,98213.66
2022-12-23T01:57:44.183Z,98225.84
2022-12-23T01:58:52.456Z,98224.53
